sensor_id;sensor_type;location;lat;lon;timestamp;P1;durP1;ratioP1;P2;durP2;ratioP2
12312;SDS011;6220;53.580;9.758;2023-10-13T00:01:18;10.03;;;3.90;;
12312;SDS011;6220;53.580;9.758;2023-10-13T00:03:43;10.23;;;4.23;;
12312;SDS011;6220;53.580;9.758;2023-10-13T00:06:09;10.73;;;5.30;;
12312;SDS011;6220;53.580;9.758;2023-10-13T00:08:35;11.43;;;4.27;;
12312;SDS011;6220;53.580;9.758;2023-10-13T00:11:01;13.00;;;4.47;;
12312;SDS011;6220;53.580;9.758;2023-10-13T00:13:28;8.20;;;4.10;;
12312;SDS011;6220;53.580;9.758;2023-10-13T00:15:54;10.00;;;4.67;;
12312;SDS011;6220;53.580;9.758;2023-10-13T00:18:26;11.47;;;5.60;;
12312;SDS011;6220;53.580;9.758;2023-10-13T00:20:56;11.80;;;5.23;;
12312;SDS011;6220;53.580;9.758;2023-10-13T00:23:21;11.70;;;5.07;;
12312;SDS011;6220;53.580;9.758;2023-10-13T00:25:48;16.40;;;5.90;;
12312;SDS011;6220;53.580;9.758;2023-10-13T00:28:23;11.67;;;5.33;;
12312;SDS011;6220;53.580;9.758;2023-10-13T00:30:52;16.07;;;5.93;;
12312;SDS011;6220;53.580;9.758;2023-10-13T00:33:24;17.93;;;5.73;;
12312;SDS011;6220;53.580;9.758;2023-10-13T00:35:50;18.57;;;6.07;;
12312;SDS011;6220;53.580;9.758;2023-10-13T00:38:17;9.63;;;5.57;;
12312;SDS011;6220;53.580;9.758;2023-10-13T00:40:43;15.37;;;6.10;;
12312;SDS011;6220;53.580;9.758;2023-10-13T00:43:09;14.33;;;6.47;;
12312;SDS011;6220;53.580;9.758;2023-10-13T00:45:48;11.63;;;6.17;;
12312;SDS011;6220;53.580;9.758;2023-10-13T00:48:32;14.07;;;5.90;;
12312;SDS011;6220;53.580;9.758;2023-10-13T00:51:11;12.17;;;6.83;;
12312;SDS011;6220;53.580;9.758;2023-10-13T00:53:47;14.60;;;7.37;;
12312;SDS011;6220;53.580;9.758;2023-10-13T00:56:13;15.53;;;7.07;;
12312;SDS011;6220;53.580;9.758;2023-10-13T00:58:45;16.30;;;7.23;;
12312;SDS011;6220;53.580;9.758;2023-10-13T01:01:17;13.90;;;7.43;;
12312;SDS011;6220;53.580;9.758;2023-10-13T01:03:52;14.60;;;7.50;;
12312;SDS011;6220;53.580;9.758;2023-10-13T01:06:24;16.00;;;7.17;;
12312;SDS011;6220;53.580;9.758;2023-10-13T01:08:56;16.97;;;7.73;;
12312;SDS011;6220;53.580;9.758;2023-10-13T01:14:10;15.37;;;7.57;;
12312;SDS011;6220;53.580;9.758;2023-10-13T01:16:37;13.73;;;8.53;;
12312;SDS011;6220;53.580;9.758;2023-10-13T01:19:09;18.07;;;8.53;;
12312;SDS011;6220;53.580;9.758;2023-10-13T01:21:37;17.20;;;8.20;;
12312;SDS011;6220;53.580;9.758;2023-10-13T01:24:05;18.83;;;8.67;;
12312;SDS011;6220;53.580;9.758;2023-10-13T01:26:33;15.70;;;8.80;;
12312;SDS011;6220;53.580;9.758;2023-10-13T01:29:04;13.10;;;8.50;;
12312;SDS011;6220;53.580;9.758;2023-10-13T01:31:46;15.43;;;8.70;;
12312;SDS011;6220;53.580;9.758;2023-10-13T01:34:12;16.00;;;8.53;;
12312;SDS011;6220;53.580;9.758;2023-10-13T01:36:44;13.97;;;10.10;;
12312;SDS011;6220;53.580;9.758;2023-10-13T01:39:10;20.27;;;9.93;;
12312;SDS011;6220;53.580;9.758;2023-10-13T01:41:36;18.03;;;9.60;;
12312;SDS011;6220;53.580;9.758;2023-10-13T01:44:04;18.87;;;11.03;;
12312;SDS011;6220;53.580;9.758;2023-10-13T01:46:29;20.03;;;10.63;;
12312;SDS011;6220;53.580;9.758;2023-10-13T01:48:54;17.23;;;9.63;;
12312;SDS011;6220;53.580;9.758;2023-10-13T01:51:22;18.30;;;11.27;;
12312;SDS011;6220;53.580;9.758;2023-10-13T01:53:48;22.60;;;12.90;;
12312;SDS011;6220;53.580;9.758;2023-10-13T01:56:21;19.77;;;12.20;;
12312;SDS011;6220;53.580;9.758;2023-10-13T01:58:48;22.03;;;12.87;;
12312;SDS011;6220;53.580;9.758;2023-10-13T02:01:14;21.90;;;13.57;;
12312;SDS011;6220;53.580;9.758;2023-10-13T02:03:51;24.57;;;13.63;;
12312;SDS011;6220;53.580;9.758;2023-10-13T02:06:29;18.97;;;12.13;;
12312;SDS011;6220;53.580;9.758;2023-10-13T02:08:59;19.53;;;12.47;;
12312;SDS011;6220;53.580;9.758;2023-10-13T02:11:34;23.37;;;12.97;;
12312;SDS011;6220;53.580;9.758;2023-10-13T02:14:01;22.07;;;14.53;;
12312;SDS011;6220;53.580;9.758;2023-10-13T02:16:26;21.83;;;14.93;;
12312;SDS011;6220;53.580;9.758;2023-10-13T02:18:52;19.57;;;13.43;;
12312;SDS011;6220;53.580;9.758;2023-10-13T02:21:17;22.53;;;14.00;;
12312;SDS011;6220;53.580;9.758;2023-10-13T02:23:42;23.67;;;13.87;;
12312;SDS011;6220;53.580;9.758;2023-10-13T02:26:11;25.73;;;14.37;;
12312;SDS011;6220;53.580;9.758;2023-10-13T02:28:46;24.73;;;14.30;;
12312;SDS011;6220;53.580;9.758;2023-10-13T02:31:16;24.17;;;15.33;;
12312;SDS011;6220;53.580;9.758;2023-10-13T02:33:44;26.63;;;15.43;;
12312;SDS011;6220;53.580;9.758;2023-10-13T02:36:10;20.90;;;13.33;;
12312;SDS011;6220;53.580;9.758;2023-10-13T02:38:37;25.80;;;15.50;;
12312;SDS011;6220;53.580;9.758;2023-10-13T02:41:11;24.57;;;15.00;;
12312;SDS011;6220;53.580;9.758;2023-10-13T02:43:43;25.17;;;15.40;;
12312;SDS011;6220;53.580;9.758;2023-10-13T02:46:09;23.53;;;15.87;;
12312;SDS011;6220;53.580;9.758;2023-10-13T02:48:34;23.23;;;16.03;;
12312;SDS011;6220;53.580;9.758;2023-10-13T02:51:07;24.63;;;15.87;;
12312;SDS011;6220;53.580;9.758;2023-10-13T02:53:43;25.53;;;15.37;;
12312;SDS011;6220;53.580;9.758;2023-10-13T02:56:12;24.20;;;15.23;;
12312;SDS011;6220;53.580;9.758;2023-10-13T02:58:38;25.13;;;16.50;;
12312;SDS011;6220;53.580;9.758;2023-10-13T03:01:07;25.70;;;16.93;;
12312;SDS011;6220;53.580;9.758;2023-10-13T03:03:49;27.13;;;16.63;;
12312;SDS011;6220;53.580;9.758;2023-10-13T03:06:17;24.57;;;15.93;;
12312;SDS011;6220;53.580;9.758;2023-10-13T03:08:46;27.33;;;15.87;;
12312;SDS011;6220;53.580;9.758;2023-10-13T03:11:11;23.47;;;16.30;;
12312;SDS011;6220;53.580;9.758;2023-10-13T03:13:38;22.53;;;15.40;;
12312;SDS011;6220;53.580;9.758;2023-10-13T03:16:13;24.73;;;16.37;;
12312;SDS011;6220;53.580;9.758;2023-10-13T03:18:41;24.30;;;15.67;;
12312;SDS011;6220;53.580;9.758;2023-10-13T03:21:22;22.43;;;15.37;;
12312;SDS011;6220;53.580;9.758;2023-10-13T03:23:55;20.67;;;13.97;;
12312;SDS011;6220;53.580;9.758;2023-10-13T03:26:21;20.77;;;13.53;;
12312;SDS011;6220;53.580;9.758;2023-10-13T03:28:47;18.90;;;14.00;;
12312;SDS011;6220;53.580;9.758;2023-10-13T03:31:18;19.00;;;14.37;;
12312;SDS011;6220;53.580;9.758;2023-10-13T03:33:44;18.43;;;13.90;;
12312;SDS011;6220;53.580;9.758;2023-10-13T03:36:11;18.53;;;14.57;;
12312;SDS011;6220;53.580;9.758;2023-10-13T03:38:58;18.30;;;12.77;;
12312;SDS011;6220;53.580;9.758;2023-10-13T03:41:23;16.77;;;13.53;;
12312;SDS011;6220;53.580;9.758;2023-10-13T03:43:55;20.73;;;13.20;;
12312;SDS011;6220;53.580;9.758;2023-10-13T03:46:32;17.83;;;13.07;;
12312;SDS011;6220;53.580;9.758;2023-10-13T03:48:58;16.27;;;12.37;;
12312;SDS011;6220;53.580;9.758;2023-10-13T03:51:26;17.30;;;12.37;;
12312;SDS011;6220;53.580;9.758;2023-10-13T03:53:55;14.47;;;11.50;;
12312;SDS011;6220;53.580;9.758;2023-10-13T03:56:25;14.07;;;11.17;;
12312;SDS011;6220;53.580;9.758;2023-10-13T03:59:14;14.77;;;11.30;;
12312;SDS011;6220;53.580;9.758;2023-10-13T04:01:42;13.47;;;10.70;;
12312;SDS011;6220;53.580;9.758;2023-10-13T04:04:16;13.27;;;11.00;;
12312;SDS011;6220;53.580;9.758;2023-10-13T04:06:59;11.87;;;10.10;;
12312;SDS011;6220;53.580;9.758;2023-10-13T04:09:35;13.27;;;10.90;;
12312;SDS011;6220;53.580;9.758;2023-10-13T04:12:07;15.37;;;11.37;;
12312;SDS011;6220;53.580;9.758;2023-10-13T04:15:11;13.20;;;10.50;;
12312;SDS011;6220;53.580;9.758;2023-10-13T04:17:43;11.73;;;10.53;;
12312;SDS011;6220;53.580;9.758;2023-10-13T04:20:13;14.43;;;11.60;;
12312;SDS011;6220;53.580;9.758;2023-10-13T04:22:44;13.57;;;10.77;;
12312;SDS011;6220;53.580;9.758;2023-10-13T04:25:13;13.33;;;11.37;;
12312;SDS011;6220;53.580;9.758;2023-10-13T04:27:58;14.43;;;12.40;;
12312;SDS011;6220;53.580;9.758;2023-10-13T04:30:40;17.37;;;13.60;;
12312;SDS011;6220;53.580;9.758;2023-10-13T04:33:32;18.00;;;13.73;;
12312;SDS011;6220;53.580;9.758;2023-10-13T04:39:12;16.93;;;14.30;;
12312;SDS011;6220;53.580;9.758;2023-10-13T04:41:34;23.50;;;16.57;;
12312;SDS011;6220;53.580;9.758;2023-10-13T04:44:23;22.80;;;17.60;;
12312;SDS011;6220;53.580;9.758;2023-10-13T04:46:48;21.90;;;17.47;;
12312;SDS011;6220;53.580;9.758;2023-10-13T04:49:14;23.80;;;17.93;;
12312;SDS011;6220;53.580;9.758;2023-10-13T04:51:59;24.27;;;18.83;;
12312;SDS011;6220;53.580;9.758;2023-10-13T04:54:43;25.57;;;20.67;;
12312;SDS011;6220;53.580;9.758;2023-10-13T04:57:13;28.97;;;21.20;;
12312;SDS011;6220;53.580;9.758;2023-10-13T04:59:58;28.00;;;21.83;;
12312;SDS011;6220;53.580;9.758;2023-10-13T05:02:50;30.80;;;24.60;;
12312;SDS011;6220;53.580;9.758;2023-10-13T05:05:28;36.90;;;26.40;;
12312;SDS011;6220;53.580;9.758;2023-10-13T05:08:11;30.07;;;24.37;;
12312;SDS011;6220;53.580;9.758;2023-10-13T05:10:56;36.00;;;26.33;;
12312;SDS011;6220;53.580;9.758;2023-10-13T05:13:40;35.50;;;26.97;;
12312;SDS011;6220;53.580;9.758;2023-10-13T05:16:43;36.43;;;27.77;;
12312;SDS011;6220;53.580;9.758;2023-10-13T05:19:28;40.37;;;29.17;;
12312;SDS011;6220;53.580;9.758;2023-10-13T05:22:11;42.40;;;29.73;;
12312;SDS011;6220;53.580;9.758;2023-10-13T05:24:55;42.73;;;29.37;;
12312;SDS011;6220;53.580;9.758;2023-10-13T05:27:39;39.20;;;28.70;;
12312;SDS011;6220;53.580;9.758;2023-10-13T05:30:23;34.37;;;27.03;;
12312;SDS011;6220;53.580;9.758;2023-10-13T05:33:07;37.60;;;28.97;;
12312;SDS011;6220;53.580;9.758;2023-10-13T05:35:51;38.57;;;27.50;;
12312;SDS011;6220;53.580;9.758;2023-10-13T05:38:35;36.53;;;27.50;;
12312;SDS011;6220;53.580;9.758;2023-10-13T05:41:19;33.73;;;26.93;;
12312;SDS011;6220;53.580;9.758;2023-10-13T05:44:03;34.47;;;27.57;;
12312;SDS011;6220;53.580;9.758;2023-10-13T05:46:47;39.70;;;28.43;;
12312;SDS011;6220;53.580;9.758;2023-10-13T05:49:35;38.03;;;26.50;;
12312;SDS011;6220;53.580;9.758;2023-10-13T05:52:14;38.67;;;27.60;;
12312;SDS011;6220;53.580;9.758;2023-10-13T05:54:58;36.70;;;27.47;;
12312;SDS011;6220;53.580;9.758;2023-10-13T05:57:42;36.73;;;27.80;;
12312;SDS011;6220;53.580;9.758;2023-10-13T06:00:26;34.27;;;26.80;;
12312;SDS011;6220;53.580;9.758;2023-10-13T06:03:10;37.23;;;27.23;;
12312;SDS011;6220;53.580;9.758;2023-10-13T06:05:54;34.87;;;26.63;;
12312;SDS011;6220;53.580;9.758;2023-10-13T06:08:38;38.30;;;28.57;;
12312;SDS011;6220;53.580;9.758;2023-10-13T06:11:22;36.00;;;28.23;;
12312;SDS011;6220;53.580;9.758;2023-10-13T06:14:06;34.60;;;27.00;;
12312;SDS011;6220;53.580;9.758;2023-10-13T06:16:49;31.97;;;27.37;;
12312;SDS011;6220;53.580;9.758;2023-10-13T06:19:33;32.83;;;26.97;;
12312;SDS011;6220;53.580;9.758;2023-10-13T06:22:17;32.30;;;27.33;;
12312;SDS011;6220;53.580;9.758;2023-10-13T06:25:01;35.07;;;27.40;;
12312;SDS011;6220;53.580;9.758;2023-10-13T06:27:45;34.43;;;27.23;;
12312;SDS011;6220;53.580;9.758;2023-10-13T06:30:29;32.70;;;26.87;;
12312;SDS011;6220;53.580;9.758;2023-10-13T06:32:55;35.63;;;26.80;;
12312;SDS011;6220;53.580;9.758;2023-10-13T06:35:20;34.20;;;27.57;;
12312;SDS011;6220;53.580;9.758;2023-10-13T06:37:49;32.17;;;26.43;;
12312;SDS011;6220;53.580;9.758;2023-10-13T06:40:15;35.40;;;27.83;;
12312;SDS011;6220;53.580;9.758;2023-10-13T06:42:46;31.63;;;26.70;;
12312;SDS011;6220;53.580;9.758;2023-10-13T06:45:11;35.27;;;27.70;;
12312;SDS011;6220;53.580;9.758;2023-10-13T06:47:37;34.80;;;27.27;;
12312;SDS011;6220;53.580;9.758;2023-10-13T06:50:07;34.50;;;27.53;;
12312;SDS011;6220;53.580;9.758;2023-10-13T06:52:49;31.80;;;26.93;;
12312;SDS011;6220;53.580;9.758;2023-10-13T06:55:15;35.73;;;28.87;;
12312;SDS011;6220;53.580;9.758;2023-10-13T06:57:49;35.77;;;27.60;;
12312;SDS011;6220;53.580;9.758;2023-10-13T07:00:16;35.43;;;28.40;;
12312;SDS011;6220;53.580;9.758;2023-10-13T07:02:51;34.33;;;28.73;;
12312;SDS011;6220;53.580;9.758;2023-10-13T07:05:17;37.67;;;30.83;;
12312;SDS011;6220;53.580;9.758;2023-10-13T07:07:44;37.73;;;28.63;;
12312;SDS011;6220;53.580;9.758;2023-10-13T07:10:10;36.57;;;30.53;;
12312;SDS011;6220;53.580;9.758;2023-10-13T07:12:36;33.43;;;29.23;;
12312;SDS011;6220;53.580;9.758;2023-10-13T07:15:03;34.30;;;29.33;;
12312;SDS011;6220;53.580;9.758;2023-10-13T07:17:49;38.37;;;29.93;;
12312;SDS011;6220;53.580;9.758;2023-10-13T07:20:20;34.43;;;29.23;;
12312;SDS011;6220;53.580;9.758;2023-10-13T07:23:00;38.00;;;29.17;;
12312;SDS011;6220;53.580;9.758;2023-10-13T07:25:34;35.17;;;28.70;;
12312;SDS011;6220;53.580;9.758;2023-10-13T07:28:05;33.43;;;28.13;;
12312;SDS011;6220;53.580;9.758;2023-10-13T07:30:35;31.70;;;27.87;;
12312;SDS011;6220;53.580;9.758;2023-10-13T07:33:27;31.40;;;27.27;;
12312;SDS011;6220;53.580;9.758;2023-10-13T07:36:02;31.90;;;27.43;;
12312;SDS011;6220;53.580;9.758;2023-10-13T07:38:53;33.50;;;26.33;;
12312;SDS011;6220;53.580;9.758;2023-10-13T07:41:45;30.17;;;26.10;;
12312;SDS011;6220;53.580;9.758;2023-10-13T07:44:16;32.80;;;26.73;;
12312;SDS011;6220;53.580;9.758;2023-10-13T07:46:45;30.53;;;26.03;;
12312;SDS011;6220;53.580;9.758;2023-10-13T07:49:18;26.93;;;23.97;;
12312;SDS011;6220;53.580;9.758;2023-10-13T07:51:46;27.23;;;24.30;;
12312;SDS011;6220;53.580;9.758;2023-10-13T07:54:15;24.83;;;22.00;;
12312;SDS011;6220;53.580;9.758;2023-10-13T07:56:46;26.47;;;22.20;;
12312;SDS011;6220;53.580;9.758;2023-10-13T07:59:15;25.97;;;22.73;;
12312;SDS011;6220;53.580;9.758;2023-10-13T08:01:41;24.10;;;21.33;;
12312;SDS011;6220;53.580;9.758;2023-10-13T08:04:08;22.17;;;19.77;;
12312;SDS011;6220;53.580;9.758;2023-10-13T08:06:37;21.20;;;19.10;;
12312;SDS011;6220;53.580;9.758;2023-10-13T08:09:05;23.20;;;19.10;;
12312;SDS011;6220;53.580;9.758;2023-10-13T08:11:34;22.13;;;19.07;;
12312;SDS011;6220;53.580;9.758;2023-10-13T08:14:03;19.63;;;17.50;;
12312;SDS011;6220;53.580;9.758;2023-10-13T08:16:36;19.67;;;17.27;;
12312;SDS011;6220;53.580;9.758;2023-10-13T08:19:12;19.17;;;17.17;;
12312;SDS011;6220;53.580;9.758;2023-10-13T08:21:40;19.27;;;16.50;;
12312;SDS011;6220;53.580;9.758;2023-10-13T08:24:14;17.67;;;15.87;;
12312;SDS011;6220;53.580;9.758;2023-10-13T08:26:40;17.50;;;15.70;;
12312;SDS011;6220;53.580;9.758;2023-10-13T08:29:24;17.70;;;15.80;;
12312;SDS011;6220;53.580;9.758;2023-10-13T08:31:55;17.67;;;15.87;;
12312;SDS011;6220;53.580;9.758;2023-10-13T08:34:32;18.07;;;16.07;;
12312;SDS011;6220;53.580;9.758;2023-10-13T08:37:07;18.63;;;16.63;;
12312;SDS011;6220;53.580;9.758;2023-10-13T08:39:48;16.97;;;15.17;;
12312;SDS011;6220;53.580;9.758;2023-10-13T08:42:43;15.57;;;13.93;;
12312;SDS011;6220;53.580;9.758;2023-10-13T08:45:13;16.60;;;13.63;;
12312;SDS011;6220;53.580;9.758;2023-10-13T08:47:48;12.73;;;11.43;;
12312;SDS011;6220;53.580;9.758;2023-10-13T08:50:37;13.73;;;12.43;;
12312;SDS011;6220;53.580;9.758;2023-10-13T08:53:19;14.03;;;12.63;;
12312;SDS011;6220;53.580;9.758;2023-10-13T08:58:46;12.20;;;11.00;;
12312;SDS011;6220;53.580;9.758;2023-10-13T09:01:19;12.00;;;10.80;;
12312;SDS011;6220;53.580;9.758;2023-10-13T09:04:04;13.47;;;11.07;;
12312;SDS011;6220;53.580;9.758;2023-10-13T09:06:53;11.93;;;10.00;;
12312;SDS011;6220;53.580;9.758;2023-10-13T09:09:47;12.47;;;10.63;;
12312;SDS011;6220;53.580;9.758;2023-10-13T09:12:18;12.07;;;10.63;;
12312;SDS011;6220;53.580;9.758;2023-10-13T09:15:10;10.60;;;9.60;;
12312;SDS011;6220;53.580;9.758;2023-10-13T09:17:41;10.20;;;9.20;;
12312;SDS011;6220;53.580;9.758;2023-10-13T09:20:14;12.53;;;10.03;;
12312;SDS011;6220;53.580;9.758;2023-10-13T09:22:45;11.63;;;9.03;;
12312;SDS011;6220;53.580;9.758;2023-10-13T09:27:58;12.10;;;8.20;;
12312;SDS011;6220;53.580;9.758;2023-10-13T09:30:25;10.00;;;7.70;;
12312;SDS011;6220;53.580;9.758;2023-10-13T09:33:00;11.30;;;7.77;;
12312;SDS011;6220;53.580;9.758;2023-10-13T09:35:27;9.57;;;7.83;;
12312;SDS011;6220;53.580;9.758;2023-10-13T09:37:53;10.07;;;7.70;;
12312;SDS011;6220;53.580;9.758;2023-10-13T09:40:23;8.10;;;6.80;;
12312;SDS011;6220;53.580;9.758;2023-10-13T09:42:58;12.13;;;6.63;;
12312;SDS011;6220;53.580;9.758;2023-10-13T09:45:30;10.73;;;6.70;;
12312;SDS011;6220;53.580;9.758;2023-10-13T09:48:11;10.60;;;6.97;;
12312;SDS011;6220;53.580;9.758;2023-10-13T09:50:46;10.93;;;6.90;;
12312;SDS011;6220;53.580;9.758;2023-10-13T09:53:13;7.97;;;6.67;;
12312;SDS011;6220;53.580;9.758;2023-10-13T09:55:47;9.60;;;6.80;;
12312;SDS011;6220;53.580;9.758;2023-10-13T09:58:13;11.23;;;6.20;;
12312;SDS011;6220;53.580;9.758;2023-10-13T10:00:43;10.13;;;6.70;;
12312;SDS011;6220;53.580;9.758;2023-10-13T10:03:22;9.63;;;6.40;;
12312;SDS011;6220;53.580;9.758;2023-10-13T10:06:03;13.27;;;6.80;;
12312;SDS011;6220;53.580;9.758;2023-10-13T10:08:29;10.63;;;6.27;;
12312;SDS011;6220;53.580;9.758;2023-10-13T10:14:19;14.77;;;6.23;;
12312;SDS011;6220;53.580;9.758;2023-10-13T10:19:27;10.50;;;6.80;;
12312;SDS011;6220;53.580;9.758;2023-10-13T10:22:03;11.80;;;6.33;;
12312;SDS011;6220;53.580;9.758;2023-10-13T10:24:35;8.97;;;6.40;;
12312;SDS011;6220;53.580;9.758;2023-10-13T10:27:01;8.33;;;5.80;;
12312;SDS011;6220;53.580;9.758;2023-10-13T10:29:29;13.03;;;6.57;;
12312;SDS011;6220;53.580;9.758;2023-10-13T10:31:57;9.47;;;6.37;;
12312;SDS011;6220;53.580;9.758;2023-10-13T10:34:29;14.60;;;6.60;;
12312;SDS011;6220;53.580;9.758;2023-10-13T10:36:57;10.93;;;7.07;;
12312;SDS011;6220;53.580;9.758;2023-10-13T10:39:36;9.20;;;7.17;;
12312;SDS011;6220;53.580;9.758;2023-10-13T10:42:11;12.70;;;6.70;;
12312;SDS011;6220;53.580;9.758;2023-10-13T10:44:49;11.00;;;6.63;;
12312;SDS011;6220;53.580;9.758;2023-10-13T10:47:20;11.10;;;6.83;;
12312;SDS011;6220;53.580;9.758;2023-10-13T10:50:04;15.00;;;6.93;;
12312;SDS011;6220;53.580;9.758;2023-10-13T10:52:44;11.77;;;6.63;;
12312;SDS011;6220;53.580;9.758;2023-10-13T10:55:09;10.07;;;6.63;;
12312;SDS011;6220;53.580;9.758;2023-10-13T10:57:39;10.33;;;6.60;;
12312;SDS011;6220;53.580;9.758;2023-10-13T11:00:17;15.53;;;7.20;;
12312;SDS011;6220;53.580;9.758;2023-10-13T11:02:52;12.17;;;7.00;;
12312;SDS011;6220;53.580;9.758;2023-10-13T11:05:19;11.40;;;7.50;;
12312;SDS011;6220;53.580;9.758;2023-10-13T11:07:45;9.07;;;6.87;;
12312;SDS011;6220;53.580;9.758;2023-10-13T11:10:16;11.60;;;7.33;;
12312;SDS011;6220;53.580;9.758;2023-10-13T11:12:55;12.73;;;7.70;;
12312;SDS011;6220;53.580;9.758;2023-10-13T11:15:46;10.80;;;7.43;;
12312;SDS011;6220;53.580;9.758;2023-10-13T11:18:13;9.73;;;7.13;;
12312;SDS011;6220;53.580;9.758;2023-10-13T11:20:43;9.60;;;7.03;;
12312;SDS011;6220;53.580;9.758;2023-10-13T11:23:13;9.53;;;7.83;;
12312;SDS011;6220;53.580;9.758;2023-10-13T11:25:39;10.93;;;7.93;;
12312;SDS011;6220;53.580;9.758;2023-10-13T11:28:12;11.53;;;7.90;;
12312;SDS011;6220;53.580;9.758;2023-10-13T11:30:42;13.67;;;8.60;;
12312;SDS011;6220;53.580;9.758;2023-10-13T11:33:11;10.23;;;7.90;;
12312;SDS011;6220;53.580;9.758;2023-10-13T11:35:37;12.23;;;7.03;;
12312;SDS011;6220;53.580;9.758;2023-10-13T11:38:28;9.33;;;6.87;;
12312;SDS011;6220;53.580;9.758;2023-10-13T11:41:00;10.57;;;7.37;;
12312;SDS011;6220;53.580;9.758;2023-10-13T11:43:50;14.00;;;7.30;;
12312;SDS011;6220;53.580;9.758;2023-10-13T11:46:20;12.33;;;7.43;;
12312;SDS011;6220;53.580;9.758;2023-10-13T11:49:10;11.33;;;7.20;;
12312;SDS011;6220;53.580;9.758;2023-10-13T11:51:42;10.07;;;6.80;;
12312;SDS011;6220;53.580;9.758;2023-10-13T11:54:12;11.27;;;6.40;;
12312;SDS011;6220;53.580;9.758;2023-10-13T11:56:38;9.47;;;6.13;;
12312;SDS011;6220;53.580;9.758;2023-10-13T11:59:04;11.97;;;6.63;;
12312;SDS011;6220;53.580;9.758;2023-10-13T12:01:30;12.17;;;7.10;;
12312;SDS011;6220;53.580;9.758;2023-10-13T12:04:17;8.83;;;6.13;;
12312;SDS011;6220;53.580;9.758;2023-10-13T12:07:01;11.40;;;6.33;;
12312;SDS011;6220;53.580;9.758;2023-10-13T12:09:42;10.60;;;5.80;;
12312;SDS011;6220;53.580;9.758;2023-10-13T12:12:20;11.87;;;6.20;;
12312;SDS011;6220;53.580;9.758;2023-10-13T12:14:46;14.40;;;6.10;;
12312;SDS011;6220;53.580;9.758;2023-10-13T12:17:21;12.00;;;5.90;;
12312;SDS011;6220;53.580;9.758;2023-10-13T12:20:08;15.30;;;6.37;;
12312;SDS011;6220;53.580;9.758;2023-10-13T12:22:43;12.90;;;5.93;;
12312;SDS011;6220;53.580;9.758;2023-10-13T12:25:24;14.03;;;5.90;;
12312;SDS011;6220;53.580;9.758;2023-10-13T12:28:09;14.47;;;6.20;;
12312;SDS011;6220;53.580;9.758;2023-10-13T12:30:44;13.27;;;5.60;;
12312;SDS011;6220;53.580;9.758;2023-10-13T12:33:21;12.50;;;6.10;;
12312;SDS011;6220;53.580;9.758;2023-10-13T12:35:59;11.00;;;6.10;;
12312;SDS011;6220;53.580;9.758;2023-10-13T12:38:37;11.40;;;5.37;;
12312;SDS011;6220;53.580;9.758;2023-10-13T12:41:11;13.03;;;5.73;;
12312;SDS011;6220;53.580;9.758;2023-10-13T12:43:55;13.43;;;5.97;;
12312;SDS011;6220;53.580;9.758;2023-10-13T12:46:39;12.60;;;5.17;;
12312;SDS011;6220;53.580;9.758;2023-10-13T12:49:23;15.80;;;5.43;;
12312;SDS011;6220;53.580;9.758;2023-10-13T12:52:06;11.60;;;6.00;;
12312;SDS011;6220;53.580;9.758;2023-10-13T12:54:44;13.23;;;5.90;;
12312;SDS011;6220;53.580;9.758;2023-10-13T12:57:15;12.63;;;5.67;;
12312;SDS011;6220;53.580;9.758;2023-10-13T12:59:41;13.47;;;6.70;;
12312;SDS011;6220;53.580;9.758;2023-10-13T13:02:07;14.27;;;6.00;;
12312;SDS011;6220;53.580;9.758;2023-10-13T13:04:39;11.60;;;6.17;;
12312;SDS011;6220;53.580;9.758;2023-10-13T13:07:09;18.23;;;6.17;;
12312;SDS011;6220;53.580;9.758;2023-10-13T13:09:38;11.40;;;5.43;;
12312;SDS011;6220;53.580;9.758;2023-10-13T13:12:03;11.07;;;6.37;;
12312;SDS011;6220;53.580;9.758;2023-10-13T13:14:31;13.53;;;6.40;;
12312;SDS011;6220;53.580;9.758;2023-10-13T13:16:59;11.67;;;6.40;;
12312;SDS011;6220;53.580;9.758;2023-10-13T13:19:34;14.80;;;6.73;;
12312;SDS011;6220;53.580;9.758;2023-10-13T13:22:07;13.03;;;6.40;;
12312;SDS011;6220;53.580;9.758;2023-10-13T13:24:43;15.63;;;6.37;;
12312;SDS011;6220;53.580;9.758;2023-10-13T13:27:12;11.77;;;5.70;;
12312;SDS011;6220;53.580;9.758;2023-10-13T13:29:42;16.97;;;6.37;;
12312;SDS011;6220;53.580;9.758;2023-10-13T13:32:08;11.70;;;6.17;;
12312;SDS011;6220;53.580;9.758;2023-10-13T13:35:03;12.20;;;5.90;;
12312;SDS011;6220;53.580;9.758;2023-10-13T13:37:29;13.57;;;5.63;;
12312;SDS011;6220;53.580;9.758;2023-10-13T13:39:55;13.57;;;5.57;;
12312;SDS011;6220;53.580;9.758;2023-10-13T13:42:21;9.87;;;5.43;;
12312;SDS011;6220;53.580;9.758;2023-10-13T13:44:47;16.33;;;6.30;;
12312;SDS011;6220;53.580;9.758;2023-10-13T13:47:13;11.70;;;6.10;;
12312;SDS011;6220;53.580;9.758;2023-10-13T13:49:39;13.30;;;6.00;;
12312;SDS011;6220;53.580;9.758;2023-10-13T13:52:08;12.97;;;6.30;;
12312;SDS011;6220;53.580;9.758;2023-10-13T13:54:34;13.87;;;5.70;;
12312;SDS011;6220;53.580;9.758;2023-10-13T13:56:59;12.97;;;5.63;;
12312;SDS011;6220;53.580;9.758;2023-10-13T13:59:25;11.93;;;6.43;;
12312;SDS011;6220;53.580;9.758;2023-10-13T14:01:50;11.83;;;5.60;;
12312;SDS011;6220;53.580;9.758;2023-10-13T14:04:18;16.30;;;5.97;;
12312;SDS011;6220;53.580;9.758;2023-10-13T14:06:44;16.37;;;5.97;;
12312;SDS011;6220;53.580;9.758;2023-10-13T14:09:10;11.73;;;5.83;;
12312;SDS011;6220;53.580;9.758;2023-10-13T14:11:57;18.73;;;6.27;;
12312;SDS011;6220;53.580;9.758;2023-10-13T14:14:42;15.53;;;6.87;;
12312;SDS011;6220;53.580;9.758;2023-10-13T14:17:14;12.20;;;6.17;;
12312;SDS011;6220;53.580;9.758;2023-10-13T14:19:40;10.67;;;6.03;;
12312;SDS011;6220;53.580;9.758;2023-10-13T14:22:05;14.53;;;6.87;;
12312;SDS011;6220;53.580;9.758;2023-10-13T14:24:36;14.07;;;6.83;;
12312;SDS011;6220;53.580;9.758;2023-10-13T14:27:08;15.00;;;6.43;;
12312;SDS011;6220;53.580;9.758;2023-10-13T14:29:40;15.83;;;7.03;;
12312;SDS011;6220;53.580;9.758;2023-10-13T14:32:08;16.13;;;6.43;;
12312;SDS011;6220;53.580;9.758;2023-10-13T14:34:44;16.83;;;6.73;;
12312;SDS011;6220;53.580;9.758;2023-10-13T14:37:13;14.17;;;6.47;;
12312;SDS011;6220;53.580;9.758;2023-10-13T14:39:39;15.83;;;6.50;;
12312;SDS011;6220;53.580;9.758;2023-10-13T14:42:05;15.10;;;6.67;;
12312;SDS011;6220;53.580;9.758;2023-10-13T14:44:33;15.67;;;6.90;;
12312;SDS011;6220;53.580;9.758;2023-10-13T14:46:59;16.63;;;7.03;;
12312;SDS011;6220;53.580;9.758;2023-10-13T14:49:25;13.90;;;7.10;;
12312;SDS011;6220;53.580;9.758;2023-10-13T14:51:51;11.27;;;6.60;;
12312;SDS011;6220;53.580;9.758;2023-10-13T14:54:17;14.83;;;6.40;;
12312;SDS011;6220;53.580;9.758;2023-10-13T14:56:50;13.73;;;6.80;;
12312;SDS011;6220;53.580;9.758;2023-10-13T14:59:17;13.53;;;6.67;;
12312;SDS011;6220;53.580;9.758;2023-10-13T15:01:44;16.63;;;6.60;;
12312;SDS011;6220;53.580;9.758;2023-10-13T15:04:11;11.90;;;6.00;;
12312;SDS011;6220;53.580;9.758;2023-10-13T15:06:36;17.13;;;7.00;;
12312;SDS011;6220;53.580;9.758;2023-10-13T15:09:02;12.73;;;6.73;;
12312;SDS011;6220;53.580;9.758;2023-10-13T15:11:28;11.53;;;6.27;;
12312;SDS011;6220;53.580;9.758;2023-10-13T15:14:03;18.27;;;6.90;;
12312;SDS011;6220;53.580;9.758;2023-10-13T15:16:31;15.40;;;6.50;;
12312;SDS011;6220;53.580;9.758;2023-10-13T15:18:58;14.90;;;6.17;;
12312;SDS011;6220;53.580;9.758;2023-10-13T15:21:27;13.83;;;6.53;;
12312;SDS011;6220;53.580;9.758;2023-10-13T15:24:03;18.63;;;6.60;;
12312;SDS011;6220;53.580;9.758;2023-10-13T15:26:38;13.10;;;7.07;;
12312;SDS011;6220;53.580;9.758;2023-10-13T15:29:06;16.63;;;6.43;;
12312;SDS011;6220;53.580;9.758;2023-10-13T15:31:37;13.77;;;6.73;;
12312;SDS011;6220;53.580;9.758;2023-10-13T15:34:03;15.23;;;6.43;;
12312;SDS011;6220;53.580;9.758;2023-10-13T15:36:37;16.03;;;6.57;;